sensor_id;sensor_type;location;lat;lon;timestamp;P1;durP1;ratioP1;P2;durP2;ratioP2
19364;SDS011;9818;48.382;10.850;2022-11-15T07:36:06;7.97;;;6.10;;
19364;SDS011;9818;48.382;10.850;2022-11-15T07:41:07;8.73;;;6.70;;
19364;SDS011;9818;48.382;10.850;2022-11-15T07:43:36;8.37;;;6.10;;
19364;SDS011;9818;48.382;10.850;2022-11-15T07:46:05;9.70;;;6.73;;
19364;SDS011;9818;48.382;10.850;2022-11-15T07:48:35;7.70;;;6.60;;
19364;SDS011;9818;48.382;10.850;2022-11-15T07:51:05;9.37;;;5.87;;
19364;SDS011;9818;48.382;10.850;2022-11-15T07:53:33;7.83;;;5.60;;
19364;SDS011;9818;48.382;10.850;2022-11-15T07:56:02;8.00;;;5.50;;
19364;SDS011;9818;48.382;10.850;2022-11-15T07:58:36;7.15;;;5.20;;
19364;SDS011;9818;48.382;10.850;2022-11-15T08:01:05;7.33;;;5.87;;
19364;SDS011;9818;48.382;10.850;2022-11-15T08:03:36;6.70;;;5.50;;
19364;SDS011;9818;48.382;10.850;2022-11-15T08:06:05;7.87;;;5.97;;
19364;SDS011;9818;48.382;10.850;2022-11-15T08:08:34;10.30;;;6.20;;
19364;SDS011;9818;48.382;10.850;2022-11-15T08:11:02;10.20;;;6.23;;
19364;SDS011;9818;48.382;10.850;2022-11-15T08:13:34;7.30;;;6.03;;
19364;SDS011;9818;48.382;10.850;2022-11-15T08:16:03;7.93;;;6.00;;
19364;SDS011;9818;48.382;10.850;2022-11-15T08:18:33;7.20;;;5.57;;
19364;SDS011;9818;48.382;10.850;2022-11-15T08:21:02;7.00;;;5.27;;
19364;SDS011;9818;48.382;10.850;2022-11-15T08:23:32;8.83;;;5.57;;
19364;SDS011;9818;48.382;10.850;2022-11-15T08:26:01;7.13;;;5.30;;
19364;SDS011;9818;48.382;10.850;2022-11-15T08:28:30;7.90;;;5.87;;
19364;SDS011;9818;48.382;10.850;2022-11-15T08:31:02;6.90;;;5.53;;
19364;SDS011;9818;48.382;10.850;2022-11-15T08:33:31;7.23;;;5.60;;
19364;SDS011;9818;48.382;10.850;2022-11-15T08:36:00;8.23;;;6.43;;
19364;SDS011;9818;48.382;10.850;2022-11-15T08:38:29;9.03;;;5.97;;
19364;SDS011;9818;48.382;10.850;2022-11-15T08:41:00;6.97;;;5.50;;
19364;SDS011;9818;48.382;10.850;2022-11-15T08:43:33;8.90;;;5.77;;
19364;SDS011;9818;48.382;10.850;2022-11-15T08:46:02;8.10;;;5.50;;
19364;SDS011;9818;48.382;10.850;2022-11-15T08:48:31;7.27;;;4.97;;
19364;SDS011;9818;48.382;10.850;2022-11-15T08:51:00;6.97;;;5.53;;
19364;SDS011;9818;48.382;10.850;2022-11-15T08:53:28;7.20;;;5.10;;
19364;SDS011;9818;48.382;10.850;2022-11-15T08:55:57;5.77;;;4.60;;
19364;SDS011;9818;48.382;10.850;2022-11-15T08:58:26;6.60;;;4.70;;
19364;SDS011;9818;48.382;10.850;2022-11-15T09:08:23;4.80;;;3.97;;
19364;SDS011;9818;48.382;10.850;2022-11-15T09:10:52;4.70;;;3.60;;
19364;SDS011;9818;48.382;10.850;2022-11-15T09:13:21;4.77;;;3.30;;
19364;SDS011;9818;48.382;10.850;2022-11-15T09:15:49;3.90;;;3.50;;
19364;SDS011;9818;48.382;10.850;2022-11-15T09:18:21;4.40;;;3.10;;
19364;SDS011;9818;48.382;10.850;2022-11-15T09:20:49;3.77;;;3.40;;
19364;SDS011;9818;48.382;10.850;2022-11-15T09:23:18;7.10;;;3.63;;
19364;SDS011;9818;48.382;10.850;2022-11-15T09:25:46;6.13;;;3.73;;
19364;SDS011;9818;48.382;10.850;2022-11-15T09:28:15;5.10;;;3.60;;
19364;SDS011;9818;48.382;10.850;2022-11-15T09:30:44;5.03;;;3.17;;
19364;SDS011;9818;48.382;10.850;2022-11-15T09:33:12;3.60;;;3.00;;
19364;SDS011;9818;48.382;10.850;2022-11-15T09:35:44;4.07;;;3.40;;
19364;SDS011;9818;48.382;10.850;2022-11-15T09:38:12;3.50;;;3.20;;
19364;SDS011;9818;48.382;10.850;2022-11-15T09:40:41;3.40;;;2.77;;
19364;SDS011;9818;48.382;10.850;2022-11-15T09:43:24;2.80;;;2.60;;
19364;SDS011;9818;48.382;10.850;2022-11-15T09:56:21;4.27;;;3.00;;
19364;SDS011;9818;48.382;10.850;2022-11-15T09:58:54;3.87;;;3.47;;
19364;SDS011;9818;48.382;10.850;2022-11-15T10:01:35;3.77;;;3.10;;
19364;SDS011;9818;48.382;10.850;2022-11-15T10:04:09;3.30;;;3.00;;
19364;SDS011;9818;48.382;10.850;2022-11-15T10:06:42;3.63;;;3.13;;
19364;SDS011;9818;48.382;10.850;2022-11-15T10:09:15;4.00;;;3.30;;
19364;SDS011;9818;48.382;10.850;2022-11-15T10:11:50;3.37;;;3.07;;
19364;SDS011;9818;48.382;10.850;2022-11-15T10:14:20;3.60;;;3.03;;
19364;SDS011;9818;48.382;10.850;2022-11-15T10:19:52;3.77;;;2.93;;
19364;SDS011;9818;48.382;10.850;2022-11-15T10:22:30;3.23;;;2.83;;
19364;SDS011;9818;48.382;10.850;2022-11-15T10:25:12;3.83;;;2.97;;
19364;SDS011;9818;48.382;10.850;2022-11-15T10:27:47;4.17;;;2.90;;
19364;SDS011;9818;48.382;10.850;2022-11-15T10:30:20;3.17;;;2.87;;
19364;SDS011;9818;48.382;10.850;2022-11-15T10:32:49;4.07;;;2.83;;
19364;SDS011;9818;48.382;10.850;2022-11-15T10:35:19;4.57;;;3.23;;
19364;SDS011;9818;48.382;10.850;2022-11-15T10:38:04;3.37;;;3.07;;
19364;SDS011;9818;48.382;10.850;2022-11-15T10:40:34;3.63;;;2.90;;
19364;SDS011;9818;48.382;10.850;2022-11-15T10:43:05;3.47;;;2.93;;
19364;SDS011;9818;48.382;10.850;2022-11-15T10:45:41;4.00;;;3.17;;
19364;SDS011;9818;48.382;10.850;2022-11-15T10:50:49;3.13;;;2.47;;
